sensor_id;sensor_type;location;lat;lon;timestamp;P1;durP1;ratioP1;P2;durP2;ratioP2
37645;SDS011;23489;49.600;6.138;2022-08-19T07:17:54;13.90;;;12.50;;
37645;SDS011;23489;49.600;6.138;2022-08-19T07:20:20;14.43;;;13.02;;
37645;SDS011;23489;49.600;6.138;2022-08-19T07:22:45;15.18;;;13.68;;
37645;SDS011;23489;49.600;6.138;2022-08-19T07:25:12;15.88;;;13.77;;
37645;SDS011;23489;49.600;6.138;2022-08-19T07:27:38;16.30;;;14.60;;
37645;SDS011;23489;49.600;6.138;2022-08-19T07:30:04;16.27;;;14.73;;
37645;SDS011;23489;49.600;6.138;2022-08-19T07:32:30;15.75;;;14.25;;
37645;SDS011;23489;49.600;6.138;2022-08-19T07:34:56;14.25;;;12.85;;
37645;SDS011;23489;49.600;6.138;2022-08-19T07:37:23;17.83;;;16.13;;
37645;SDS011;23489;49.600;6.138;2022-08-19T07:39:51;18.20;;;16.30;;
37645;SDS011;23489;49.600;6.138;2022-08-19T07:42:17;15.63;;;14.13;;
37645;SDS011;23489;49.600;6.138;2022-08-19T07:44:45;17.10;;;15.40;;
37645;SDS011;23489;49.600;6.138;2022-08-19T07:47:11;18.60;;;16.65;;
37645;SDS011;23489;49.600;6.138;2022-08-19T07:49:38;17.27;;;15.45;;
37645;SDS011;23489;49.600;6.138;2022-08-19T07:52:05;17.85;;;16.00;;
37645;SDS011;23489;49.600;6.138;2022-08-19T07:54:34;17.42;;;15.63;;
37645;SDS011;23489;49.600;6.138;2022-08-19T07:57:06;18.23;;;15.95;;
37645;SDS011;23489;49.600;6.138;2022-08-19T07:59:33;15.93;;;14.32;;
37645;SDS011;23489;49.600;6.138;2022-08-19T08:01:59;18.00;;;15.85;;
37645;SDS011;23489;49.600;6.138;2022-08-19T08:04:25;14.30;;;12.93;;
37645;SDS011;23489;49.600;6.138;2022-08-19T08:07:10;18.02;;;15.90;;
37645;SDS011;23489;49.600;6.138;2022-08-19T08:09:55;19.73;;;16.40;;
37645;SDS011;23489;49.600;6.138;2022-08-19T08:12:22;17.15;;;15.43;;
37645;SDS011;23489;49.600;6.138;2022-08-19T08:14:54;19.55;;;17.65;;
37645;SDS011;23489;49.600;6.138;2022-08-19T08:17:24;18.73;;;16.73;;
37645;SDS011;23489;49.600;6.138;2022-08-19T08:19:52;16.95;;;15.32;;
37645;SDS011;23489;49.600;6.138;2022-08-19T08:22:19;18.52;;;16.67;;
37645;SDS011;23489;49.600;6.138;2022-08-19T08:25:06;14.90;;;13.40;;
37645;SDS011;23489;49.600;6.138;2022-08-19T08:27:36;16.38;;;14.65;;
37645;SDS011;23489;49.600;6.138;2022-08-19T08:30:09;15.45;;;13.98;;
37645;SDS011;23489;49.600;6.138;2022-08-19T08:32:37;15.15;;;13.65;;
37645;SDS011;23489;49.600;6.138;2022-08-19T08:35:04;17.08;;;14.98;;
37645;SDS011;23489;49.600;6.138;2022-08-19T08:37:32;15.35;;;13.95;;
37645;SDS011;23489;49.600;6.138;2022-08-19T08:39:57;16.05;;;14.45;;
37645;SDS011;23489;49.600;6.138;2022-08-19T08:42:28;15.30;;;13.80;;
37645;SDS011;23489;49.600;6.138;2022-08-19T08:45:04;12.43;;;11.13;;
37645;SDS011;23489;49.600;6.138;2022-08-19T08:47:38;15.00;;;13.63;;
37645;SDS011;23489;49.600;6.138;2022-08-19T08:50:08;14.57;;;13.18;;
37645;SDS011;23489;49.600;6.138;2022-08-19T08:52:45;13.35;;;12.02;;
37645;SDS011;23489;49.600;6.138;2022-08-19T08:55:15;12.00;;;10.90;;
37645;SDS011;23489;49.600;6.138;2022-08-19T09:02:56;13.75;;;12.50;;
37645;SDS011;23489;49.600;6.138;2022-08-19T09:05:23;14.45;;;12.88;;
37645;SDS011;23489;49.600;6.138;2022-08-19T09:10:38;11.70;;;10.60;;
37645;SDS011;23489;49.600;6.138;2022-08-19T09:13:35;14.45;;;13.15;;
37645;SDS011;23489;49.600;6.138;2022-08-19T09:16:16;14.27;;;12.07;;
37645;SDS011;23489;49.600;6.138;2022-08-19T09:18:50;12.13;;;10.93;;
37645;SDS011;23489;49.600;6.138;2022-08-19T09:21:18;11.88;;;10.73;;
37645;SDS011;23489;49.600;6.138;2022-08-19T09:28:40;12.50;;;11.20;;
37645;SDS011;23489;49.600;6.138;2022-08-19T12:11:12;7.55;;;6.80;;
37645;SDS011;23489;49.600;6.138;2022-08-19T12:13:39;12.32;;;9.57;;
37645;SDS011;23489;49.600;6.138;2022-08-19T12:16:13;9.40;;;6.93;;
37645;SDS011;23489;49.600;6.138;2022-08-19T12:18:41;9.65;;;7.97;;
37645;SDS011;23489;49.600;6.138;2022-08-19T12:21:10;9.70;;;7.75;;
37645;SDS011;23489;49.600;6.138;2022-08-19T12:23:37;13.15;;;9.73;;
37645;SDS011;23489;49.600;6.138;2022-08-19T12:26:03;12.10;;;9.23;;
37645;SDS011;23489;49.600;6.138;2022-08-19T12:28:30;10.52;;;9.40;;
37645;SDS011;23489;49.600;6.138;2022-08-19T12:30:56;11.65;;;9.90;;
37645;SDS011;23489;49.600;6.138;2022-08-19T12:33:22;11.60;;;9.93;;
37645;SDS011;23489;49.600;6.138;2022-08-19T12:35:50;10.43;;;9.35;;
37645;SDS011;23489;49.600;6.138;2022-08-19T12:38:16;11.88;;;10.63;;
37645;SDS011;23489;49.600;6.138;2022-08-19T12:40:45;10.82;;;9.70;;
37645;SDS011;23489;49.600;6.138;2022-08-19T12:43:12;11.05;;;9.48;;
37645;SDS011;23489;49.600;6.138;2022-08-19T12:45:41;10.30;;;9.20;;
37645;SDS011;23489;49.600;6.138;2022-08-19T12:48:08;10.65;;;9.55;;
37645;SDS011;23489;49.600;6.138;2022-08-19T12:50:34;12.35;;;9.93;;
37645;SDS011;23489;49.600;6.138;2022-08-19T12:52:59;8.93;;;8.02;;
37645;SDS011;23489;49.600;6.138;2022-08-19T12:55:25;7.47;;;6.67;;
37645;SDS011;23489;49.600;6.138;2022-08-19T12:57:53;8.07;;;6.63;;
37645;SDS011;23489;49.600;6.138;2022-08-19T13:00:20;7.80;;;6.13;;
37645;SDS011;23489;49.600;6.138;2022-08-19T13:02:47;9.67;;;6.30;;
37645;SDS011;23489;49.600;6.138;2022-08-19T13:05:18;8.47;;;6.60;;
37645;SDS011;23489;49.600;6.138;2022-08-19T13:07:47;7.03;;;6.15;;
37645;SDS011;23489;49.600;6.138;2022-08-19T13:10:14;8.83;;;6.40;;
37645;SDS011;23489;49.600;6.138;2022-08-19T13:12:41;7.17;;;6.47;;
37645;SDS011;23489;49.600;6.138;2022-08-19T13:15:07;6.18;;;5.57;;
37645;SDS011;23489;49.600;6.138;2022-08-19T13:17:34;6.85;;;6.15;;
37645;SDS011;23489;49.600;6.138;2022-08-19T13:20:00;7.45;;;5.80;;
37645;SDS011;23489;49.600;6.138;2022-08-19T13:22:26;7.25;;;5.47;;
37645;SDS011;23489;49.600;6.138;2022-08-19T13:24:52;5.35;;;4.75;;
37645;SDS011;23489;49.600;6.138;2022-08-19T13:27:17;5.37;;;4.83;;
37645;SDS011;23489;49.600;6.138;2022-08-19T13:29:43;6.53;;;4.83;;
37645;SDS011;23489;49.600;6.138;2022-08-19T13:32:28;5.28;;;4.78;;
37645;SDS011;23489;49.600;6.138;2022-08-19T13:35:13;4.57;;;4.18;;
37645;SDS011;23489;49.600;6.138;2022-08-19T13:37:40;5.18;;;4.05;;
37645;SDS011;23489;49.600;6.138;2022-08-19T13:40:06;4.57;;;4.10;;
37645;SDS011;23489;49.600;6.138;2022-08-19T13:42:38;5.85;;;4.10;;
37645;SDS011;23489;49.600;6.138;2022-08-19T13:45:04;4.00;;;3.70;;
37645;SDS011;23489;49.600;6.138;2022-08-19T13:47:31;4.37;;;3.97;;
37645;SDS011;23489;49.600;6.138;2022-08-19T13:49:59;3.30;;;3.00;;
37645;SDS011;23489;49.600;6.138;2022-08-19T13:52:28;3.35;;;2.85;;
37645;SDS011;23489;49.600;6.138;2022-08-19T13:54:54;2.22;;;2.03;;
37645;SDS011;23489;49.600;6.138;2022-08-19T13:57:19;2.17;;;1.90;;
37645;SDS011;23489;49.600;6.138;2022-08-19T13:59:45;2.20;;;1.80;;
37645;SDS011;23489;49.600;6.138;2022-08-19T14:02:11;2.07;;;1.87;;
37645;SDS011;23489;49.600;6.138;2022-08-19T14:04:37;2.37;;;1.73;;
37645;SDS011;23489;49.600;6.138;2022-08-19T14:07:03;2.10;;;1.90;;
37645;SDS011;23489;49.600;6.138;2022-08-19T14:09:29;2.33;;;1.92;;
37645;SDS011;23489;49.600;6.138;2022-08-19T14:11:55;2.80;;;2.00;;
37645;SDS011;23489;49.600;6.138;2022-08-19T14:14:21;2.20;;;2.00;;
37645;SDS011;23489;49.600;6.138;2022-08-19T14:16:47;2.63;;;2.40;;
37645;SDS011;23489;49.600;6.138;2022-08-19T14:19:14;3.60;;;2.80;;
37645;SDS011;23489;49.600;6.138;2022-08-19T14:21:39;3.50;;;3.20;;
37645;SDS011;23489;49.600;6.138;2022-08-19T14:24:06;3.85;;;3.45;;
37645;SDS011;23489;49.600;6.138;2022-08-19T14:26:32;5.00;;;3.40;;
37645;SDS011;23489;49.600;6.138;2022-08-19T14:28:58;4.20;;;3.03;;
37645;SDS011;23489;49.600;6.138;2022-08-19T14:31:24;3.05;;;2.75;;
37645;SDS011;23489;49.600;6.138;2022-08-19T14:33:50;3.40;;;2.70;;
37645;SDS011;23489;49.600;6.138;2022-08-19T14:36:17;2.70;;;2.50;;
37645;SDS011;23489;49.600;6.138;2022-08-19T14:38:44;2.83;;;2.53;;
37645;SDS011;23489;49.600;6.138;2022-08-19T14:41:14;2.42;;;2.22;;
37645;SDS011;23489;49.600;6.138;2022-08-19T14:43:43;2.20;;;2.00;;
37645;SDS011;23489;49.600;6.138;2022-08-19T14:46:16;1.98;;;1.80;;
37645;SDS011;23489;49.600;6.138;2022-08-19T14:48:47;1.90;;;1.80;;
37645;SDS011;23489;49.600;6.138;2022-08-19T14:51:14;2.30;;;1.60;;
37645;SDS011;23489;49.600;6.138;2022-08-19T14:53:40;1.60;;;1.50;;
37645;SDS011;23489;49.600;6.138;2022-08-19T14:56:07;1.92;;;1.65;;
37645;SDS011;23489;49.600;6.138;2022-08-19T14:58:39;1.40;;;1.30;;
37645;SDS011;23489;49.600;6.138;2022-08-19T15:01:06;3.20;;;1.40;;
37645;SDS011;23489;49.600;6.138;2022-08-19T15:03:33;2.08;;;1.50;;
37645;SDS011;23489;49.600;6.138;2022-08-19T15:05:59;1.40;;;1.30;;
37645;SDS011;23489;49.600;6.138;2022-08-19T15:08:27;3.08;;;1.33;;
37645;SDS011;23489;49.600;6.138;2022-08-19T15:10:54;1.38;;;1.25;;
37645;SDS011;23489;49.600;6.138;2022-08-19T15:13:21;2.20;;;1.40;;
37645;SDS011;23489;49.600;6.138;2022-08-19T15:15:47;2.53;;;1.50;;
37645;SDS011;23489;49.600;6.138;2022-08-19T15:18:13;2.55;;;1.55;;
37645;SDS011;23489;49.600;6.138;2022-08-19T15:20:39;3.57;;;1.40;;
37645;SDS011;23489;49.600;6.138;2022-08-19T15:23:05;1.98;;;1.30;;
37645;SDS011;23489;49.600;6.138;2022-08-19T15:25:31;1.90;;;1.60;;
37645;SDS011;23489;49.600;6.138;2022-08-19T15:27:58;2.20;;;1.50;;
37645;SDS011;23489;49.600;6.138;2022-08-19T15:30:26;3.95;;;1.60;;
37645;SDS011;23489;49.600;6.138;2022-08-19T15:32:53;2.80;;;1.60;;
37645;SDS011;23489;49.600;6.138;2022-08-19T15:35:20;1.50;;;1.40;;
37645;SDS011;23489;49.600;6.138;2022-08-19T15:37:50;2.20;;;1.55;;
37645;SDS011;23489;49.600;6.138;2022-08-19T15:40:18;1.60;;;1.42;;
37645;SDS011;23489;49.600;6.138;2022-08-19T15:42:45;2.38;;;1.50;;
37645;SDS011;23489;49.600;6.138;2022-08-19T15:45:12;1.63;;;1.30;;
37645;SDS011;23489;49.600;6.138;2022-08-19T15:47:38;1.80;;;1.33;;
37645;SDS011;23489;49.600;6.138;2022-08-19T15:52:30;1.70;;;1.23;;
37645;SDS011;23489;49.600;6.138;2022-08-19T15:54:56;1.50;;;1.40;;
37645;SDS011;23489;49.600;6.138;2022-08-19T15:57:21;1.30;;;1.20;;
37645;SDS011;23489;49.600;6.138;2022-08-19T15:59:47;2.05;;;1.20;;
37645;SDS011;23489;49.600;6.138;2022-08-19T16:02:32;1.75;;;1.25;;
37645;SDS011;23489;49.600;6.138;2022-08-19T16:05:18;1.75;;;1.17;;
37645;SDS011;23489;49.600;6.138;2022-08-19T16:08:05;2.47;;;1.45;;
37645;SDS011;23489;49.600;6.138;2022-08-19T16:10:33;1.58;;;1.30;;
37645;SDS011;23489;49.600;6.138;2022-08-19T16:12:59;3.40;;;2.20;;
37645;SDS011;23489;49.600;6.138;2022-08-19T16:15:26;2.22;;;1.50;;
37645;SDS011;23489;49.600;6.138;2022-08-19T16:17:55;2.38;;;1.88;;
37645;SDS011;23489;49.600;6.138;2022-08-19T16:20:21;1.55;;;1.30;;
37645;SDS011;23489;49.600;6.138;2022-08-19T16:22:47;2.38;;;1.40;;
37645;SDS011;23489;49.600;6.138;2022-08-19T16:25:13;1.57;;;1.40;;
37645;SDS011;23489;49.600;6.138;2022-08-19T16:27:40;3.38;;;1.40;;
37645;SDS011;23489;49.600;6.138;2022-08-19T16:30:06;1.50;;;1.40;;
37645;SDS011;23489;49.600;6.138;2022-08-19T16:32:32;2.63;;;1.40;;
37645;SDS011;23489;49.600;6.138;2022-08-19T16:34:58;1.30;;;1.10;;
37645;SDS011;23489;49.600;6.138;2022-08-19T16:37:24;1.80;;;1.47;;
37645;SDS011;23489;49.600;6.138;2022-08-19T16:39:49;2.80;;;1.55;;
37645;SDS011;23489;49.600;6.138;2022-08-19T16:42:15;1.40;;;1.30;;
37645;SDS011;23489;49.600;6.138;2022-08-19T16:44:42;1.83;;;1.30;;
37645;SDS011;23489;49.600;6.138;2022-08-19T16:47:10;3.08;;;1.95;;
37645;SDS011;23489;49.600;6.138;2022-08-19T16:49:37;1.33;;;1.00;;
37645;SDS011;23489;49.600;6.138;2022-08-19T16:52:03;1.40;;;1.20;;
37645;SDS011;23489;49.600;6.138;2022-08-19T16:54:30;1.25;;;1.13;;
37645;SDS011;23489;49.600;6.138;2022-08-19T16:56:56;1.40;;;1.15;;
37645;SDS011;23489;49.600;6.138;2022-08-19T16:59:22;1.30;;;1.20;;
37645;SDS011;23489;49.600;6.138;2022-08-19T17:01:48;2.13;;;1.30;;
37645;SDS011;23489;49.600;6.138;2022-08-19T17:04:14;2.38;;;1.70;;
37645;SDS011;23489;49.600;6.138;2022-08-19T17:06:39;3.07;;;2.70;;
37645;SDS011;23489;49.600;6.138;2022-08-19T17:09:07;1.92;;;1.60;;
37645;SDS011;23489;49.600;6.138;2022-08-19T17:11:33;5.53;;;1.50;;
37645;SDS011;23489;49.600;6.138;2022-08-19T17:14:00;2.28;;;1.55;;
37645;SDS011;23489;49.600;6.138;2022-08-19T17:16:27;1.50;;;1.40;;
37645;SDS011;23489;49.600;6.138;2022-08-19T17:18:57;2.50;;;1.60;;
37645;SDS011;23489;49.600;6.138;2022-08-19T17:21:25;5.68;;;4.07;;
37645;SDS011;23489;49.600;6.138;2022-08-19T17:23:53;2.72;;;1.58;;
37645;SDS011;23489;49.600;6.138;2022-08-19T17:26:20;4.07;;;1.60;;
37645;SDS011;23489;49.600;6.138;2022-08-19T17:28:48;2.85;;;1.40;;
37645;SDS011;23489;49.600;6.138;2022-08-19T17:31:16;5.80;;;1.48;;
37645;SDS011;23489;49.600;6.138;2022-08-19T17:33:45;4.15;;;1.40;;
37645;SDS011;23489;49.600;6.138;2022-08-19T17:36:10;2.55;;;1.60;;
37645;SDS011;23489;49.600;6.138;2022-08-19T17:38:37;2.77;;;1.90;;
37645;SDS011;23489;49.600;6.138;2022-08-19T17:41:03;2.63;;;1.92;;
37645;SDS011;23489;49.600;6.138;2022-08-19T17:43:31;1.90;;;1.40;;
37645;SDS011;23489;49.600;6.138;2022-08-19T17:45:58;1.80;;;1.60;;
37645;SDS011;23489;49.600;6.138;2022-08-19T17:48:30;2.60;;;1.50;;
37645;SDS011;23489;49.600;6.138;2022-08-19T17:53:46;1.97;;;1.50;;
37645;SDS011;23489;49.600;6.138;2022-08-19T17:56:12;3.40;;;2.43;;
37645;SDS011;23489;49.600;6.138;2022-08-19T17:58:39;1.88;;;1.70;;
37645;SDS011;23489;49.600;6.138;2022-08-19T18:01:09;2.88;;;2.00;;
37645;SDS011;23489;49.600;6.138;2022-08-19T18:03:37;2.10;;;1.77;;
37645;SDS011;23489;49.600;6.138;2022-08-19T18:06:03;2.83;;;1.70;;
37645;SDS011;23489;49.600;6.138;2022-08-19T18:08:29;2.22;;;1.70;;
37645;SDS011;23489;49.600;6.138;2022-08-19T18:10:57;2.50;;;1.70;;
37645;SDS011;23489;49.600;6.138;2022-08-19T18:13:23;2.03;;;1.83;;
37645;SDS011;23489;49.600;6.138;2022-08-19T18:15:49;2.10;;;1.77;;
37645;SDS011;23489;49.600;6.138;2022-08-19T18:18:14;2.88;;;1.60;;
37645;SDS011;23489;49.600;6.138;2022-08-19T18:20:40;2.83;;;1.65;;
37645;SDS011;23489;49.600;6.138;2022-08-19T18:23:06;2.30;;;1.70;;
37645;SDS011;23489;49.600;6.138;2022-08-19T18:25:32;2.40;;;1.75;;
37645;SDS011;23489;49.600;6.138;2022-08-19T18:27:58;2.15;;;1.77;;
37645;SDS011;23489;49.600;6.138;2022-08-19T18:30:25;2.65;;;1.52;;
37645;SDS011;23489;49.600;6.138;2022-08-19T18:32:53;2.83;;;1.67;;
37645;SDS011;23489;49.600;6.138;2022-08-19T18:35:23;2.13;;;1.58;;
37645;SDS011;23489;49.600;6.138;2022-08-19T18:37:53;2.92;;;1.65;;
37645;SDS011;23489;49.600;6.138;2022-08-19T18:40:21;2.55;;;1.83;;
37645;SDS011;23489;49.600;6.138;2022-08-19T18:43:07;3.70;;;2.47;;
37645;SDS011;23489;49.600;6.138;2022-08-19T18:45:52;2.83;;;2.20;;
37645;SDS011;23489;49.600;6.138;2022-08-19T18:48:36;6.40;;;2.33;;
37645;SDS011;23489;49.600;6.138;2022-08-19T18:51:21;3.22;;;1.95;;
37645;SDS011;23489;49.600;6.138;2022-08-19T18:53:48;3.53;;;2.20;;
37645;SDS011;23489;49.600;6.138;2022-08-19T18:56:15;2.80;;;2.10;;
37645;SDS011;23489;49.600;6.138;2022-08-19T18:58:44;3.92;;;2.17;;
37645;SDS011;23489;49.600;6.138;2022-08-19T19:01:11;2.45;;;2.15;;
37645;SDS011;23489;49.600;6.138;2022-08-19T19:03:50;3.55;;;1.98;;
37645;SDS011;23489;49.600;6.138;2022-08-19T19:06:19;2.10;;;1.88;;
37645;SDS011;23489;49.600;6.138;2022-08-19T19:08:51;4.43;;;3.00;;
37645;SDS011;23489;49.600;6.138;2022-08-19T19:11:23;3.30;;;2.17;;
37645;SDS011;23489;49.600;6.138;2022-08-19T19:13:52;2.30;;;2.10;;
37645;SDS011;23489;49.600;6.138;2022-08-19T19:16:18;3.22;;;2.03;;
37645;SDS011;23489;49.600;6.138;2022-08-19T19:18:43;2.83;;;2.23;;
37645;SDS011;23489;49.600;6.138;2022-08-19T19:21:10;3.47;;;2.10;;
37645;SDS011;23489;49.600;6.138;2022-08-19T19:23:36;3.42;;;2.20;;
37645;SDS011;23489;49.600;6.138;2022-08-19T19:26:05;3.78;;;2.50;;
37645;SDS011;23489;49.600;6.138;2022-08-19T19:28:34;2.63;;;2.22;;
37645;SDS011;23489;49.600;6.138;2022-08-19T19:31:08;2.50;;;2.30;;
37645;SDS011;23489;49.600;6.138;2022-08-19T19:33:37;2.50;;;2.30;;
37645;SDS011;23489;49.600;6.138;2022-08-19T19:36:04;2.40;;;2.20;;
37645;SDS011;23489;49.600;6.138;2022-08-19T19:38:29;3.25;;;2.17;;
37645;SDS011;23489;49.600;6.138;2022-08-19T19:40:55;2.80;;;2.20;;
37645;SDS011;23489;49.600;6.138;2022-08-19T19:43:21;2.10;;;1.90;;
37645;SDS011;23489;49.600;6.138;2022-08-19T19:45:46;3.30;;;2.23;;
37645;SDS011;23489;49.600;6.138;2022-08-19T19:48:13;3.83;;;2.25;;
37645;SDS011;23489;49.600;6.138;2022-08-19T19:50:41;3.50;;;2.30;;
37645;SDS011;23489;49.600;6.138;2022-08-19T19:53:07;2.28;;;2.05;;
37645;SDS011;23489;49.600;6.138;2022-08-19T19:55:33;2.60;;;2.40;;
37645;SDS011;23489;49.600;6.138;2022-08-19T19:58:00;4.37;;;2.27;;
37645;SDS011;23489;49.600;6.138;2022-08-19T20:00:28;2.55;;;2.35;;
37645;SDS011;23489;49.600;6.138;2022-08-19T20:02:54;4.22;;;2.58;;
37645;SDS011;23489;49.600;6.138;2022-08-19T20:05:20;3.15;;;2.40;;
37645;SDS011;23489;49.600;6.138;2022-08-19T20:07:47;3.25;;;2.17;;
37645;SDS011;23489;49.600;6.138;2022-08-19T20:10:32;3.38;;;2.75;;
37645;SDS011;23489;49.600;6.138;2022-08-19T20:12:59;3.33;;;2.70;;
37645;SDS011;23489;49.600;6.138;2022-08-19T20:15:26;3.20;;;2.30;;
37645;SDS011;23489;49.600;6.138;2022-08-19T20:17:52;2.85;;;2.55;;
37645;SDS011;23489;49.600;6.138;2022-08-19T20:20:18;2.67;;;2.47;;
37645;SDS011;23489;49.600;6.138;2022-08-19T20:22:44;5.63;;;2.80;;
37645;SDS011;23489;49.600;6.138;2022-08-19T20:25:15;3.10;;;2.65;;
37645;SDS011;23489;49.600;6.138;2022-08-19T20:27:42;3.30;;;2.50;;
37645;SDS011;23489;49.600;6.138;2022-08-19T20:30:10;2.85;;;2.58;;
37645;SDS011;23489;49.600;6.138;2022-08-19T20:32:38;3.80;;;2.60;;
37645;SDS011;23489;49.600;6.138;2022-08-19T20:35:07;3.40;;;2.70;;
37645;SDS011;23489;49.600;6.138;2022-08-19T20:37:34;3.17;;;2.63;;
37645;SDS011;23489;49.600;6.138;2022-08-19T20:40:01;2.85;;;2.50;;
37645;SDS011;23489;49.600;6.138;2022-08-19T20:42:27;2.75;;;2.38;;
37645;SDS011;23489;49.600;6.138;2022-08-19T20:44:53;3.03;;;2.60;;
37645;SDS011;23489;49.600;6.138;2022-08-19T20:47:19;2.70;;;2.50;;
37645;SDS011;23489;49.600;6.138;2022-08-19T20:49:44;3.37;;;2.60;;
37645;SDS011;23489;49.600;6.138;2022-08-19T20:52:10;3.40;;;2.87;;
37645;SDS011;23489;49.600;6.138;2022-08-19T20:54:36;4.32;;;2.58;;
37645;SDS011;23489;49.600;6.138;2022-08-19T20:57:01;2.85;;;2.60;;
37645;SDS011;23489;49.600;6.138;2022-08-19T20:59:27;3.10;;;2.50;;
37645;SDS011;23489;49.600;6.138;2022-08-19T21:01:53;4.10;;;2.60;;
37645;SDS011;23489;49.600;6.138;2022-08-19T21:04:19;4.38;;;2.60;;
37645;SDS011;23489;49.600;6.138;2022-08-19T21:06:45;3.30;;;2.53;;
37645;SDS011;23489;49.600;6.138;2022-08-19T21:09:11;4.88;;;2.55;;
37645;SDS011;23489;49.600;6.138;2022-08-19T21:11:37;3.33;;;2.40;;
37645;SDS011;23489;49.600;6.138;2022-08-19T21:14:03;2.80;;;2.30;;
37645;SDS011;23489;49.600;6.138;2022-08-19T21:16:29;4.03;;;2.45;;
37645;SDS011;23489;49.600;6.138;2022-08-19T21:18:57;3.42;;;2.70;;
37645;SDS011;23489;49.600;6.138;2022-08-19T21:21:22;2.67;;;2.40;;
37645;SDS011;23489;49.600;6.138;2022-08-19T21:23:48;4.43;;;2.50;;
37645;SDS011;23489;49.600;6.138;2022-08-19T21:26:14;4.73;;;2.70;;
37645;SDS011;23489;49.600;6.138;2022-08-19T21:28:39;3.80;;;2.60;;
37645;SDS011;23489;49.600;6.138;2022-08-19T21:31:05;4.60;;;2.80;;
37645;SDS011;23489;49.600;6.138;2022-08-19T21:33:34;5.60;;;2.53;;
37645;SDS011;23489;49.600;6.138;2022-08-19T21:36:01;4.55;;;2.70;;
37645;SDS011;23489;49.600;6.138;2022-08-19T21:38:28;3.63;;;2.72;;
37645;SDS011;23489;49.600;6.138;2022-08-19T21:40:55;3.33;;;2.53;;
37645;SDS011;23489;49.600;6.138;2022-08-19T21:43:21;3.28;;;2.40;;
37645;SDS011;23489;49.600;6.138;2022-08-19T21:45:47;5.40;;;2.50;;
37645;SDS011;23489;49.600;6.138;2022-08-19T21:48:15;4.13;;;2.60;;
37645;SDS011;23489;49.600;6.138;2022-08-19T21:50:42;2.50;;;2.08;;
37645;SDS011;23489;49.600;6.138;2022-08-19T21:53:08;2.50;;;2.17;;
37645;SDS011;23489;49.600;6.138;2022-08-19T21:55:34;2.88;;;2.25;;
37645;SDS011;23489;49.600;6.138;2022-08-19T21:58:00;2.23;;;1.97;;
37645;SDS011;23489;49.600;6.138;2022-08-19T22:00:26;2.17;;;1.87;;
37645;SDS011;23489;49.600;6.138;2022-08-19T22:02:54;2.30;;;1.77;;
37645;SDS011;23489;49.600;6.138;2022-08-19T22:05:21;1.90;;;1.63;;
37645;SDS011;23489;49.600;6.138;2022-08-19T22:07:49;1.60;;;1.50;;
37645;SDS011;23489;49.600;6.138;2022-08-19T22:10:21;2.40;;;1.40;;
37645;SDS011;23489;49.600;6.138;2022-08-19T22:12:48;1.40;;;1.20;;
37645;SDS011;23489;49.600;6.138;2022-08-19T22:15:14;1.17;;;1.08;;
37645;SDS011;23489;49.600;6.138;2022-08-19T22:17:40;0.80;;;0.80;;
37645;SDS011;23489;49.600;6.138;2022-08-19T22:20:06;1.58;;;0.82;;
37645;SDS011;23489;49.600;6.138;2022-08-19T22:22:36;0.88;;;0.88;;
37645;SDS011;23489;49.600;6.138;2022-08-19T22:25:06;1.95;;;1.00;;
37645;SDS011;23489;49.600;6.138;2022-08-19T22:27:32;1.10;;;1.00;;
37645;SDS011;23489;49.600;6.138;2022-08-19T22:29:58;1.10;;;1.00;;
37645;SDS011;23489;49.600;6.138;2022-08-19T22:32:23;2.17;;;0.95;;
37645;SDS011;23489;49.600;6.138;2022-08-19T22:34:49;0.87;;;0.87;;
37645;SDS011;23489;49.600;6.138;2022-08-19T22:37:15;1.73;;;0.95;;
37645;SDS011;23489;49.600;6.138;2022-08-19T22:39:41;1.00;;;0.80;;
37645;SDS011;23489;49.600;6.138;2022-08-19T22:42:06;1.40;;;1.10;;
37645;SDS011;23489;49.600;6.138;2022-08-19T22:44:33;0.80;;;0.80;;
37645;SDS011;23489;49.600;6.138;2022-08-19T22:46:58;1.10;;;1.00;;
37645;SDS011;23489;49.600;6.138;2022-08-19T22:49:24;1.50;;;1.15;;
37645;SDS011;23489;49.600;6.138;2022-08-19T22:51:50;1.97;;;1.23;;
37645;SDS011;23489;49.600;6.138;2022-08-19T22:54:34;1.23;;;1.10;;
37645;SDS011;23489;49.600;6.138;2022-08-19T22:56:59;1.47;;;1.20;;
37645;SDS011;23489;49.600;6.138;2022-08-19T22:59:25;1.37;;;1.20;;
37645;SDS011;23489;49.600;6.138;2022-08-19T23:01:51;2.83;;;1.08;;
37645;SDS011;23489;49.600;6.138;2022-08-19T23:04:17;1.70;;;1.10;;
37645;SDS011;23489;49.600;6.138;2022-08-19T23:06:43;1.73;;;1.20;;
37645;SDS011;23489;49.600;6.138;2022-08-19T23:09:08;1.33;;;1.00;;
37645;SDS011;23489;49.600;6.138;2022-08-19T23:11:36;1.80;;;1.10;;
37645;SDS011;23489;49.600;6.138;2022-08-19T23:14:04;1.20;;;1.00;;
37645;SDS011;23489;49.600;6.138;2022-08-19T23:16:30;1.37;;;0.97;;
37645;SDS011;23489;49.600;6.138;2022-08-19T23:18:58;0.90;;;0.90;;
37645;SDS011;23489;49.600;6.138;2022-08-19T23:21:24;1.65;;;0.95;;
37645;SDS011;23489;49.600;6.138;2022-08-19T23:23:50;1.45;;;1.02;;
37645;SDS011;23489;49.600;6.138;2022-08-19T23:26:17;1.10;;;1.00;;
37645;SDS011;23489;49.600;6.138;2022-08-19T23:28:43;0.90;;;0.90;;
37645;SDS011;23489;49.600;6.138;2022-08-19T23:31:28;1.20;;;1.10;;
37645;SDS011;23489;49.600;6.138;2022-08-19T23:33:54;1.73;;;1.30;;
37645;SDS011;23489;49.600;6.138;2022-08-19T23:36:20;1.20;;;1.10;;
37645;SDS011;23489;49.600;6.138;2022-08-19T23:38:47;1.67;;;1.10;;
37645;SDS011;23489;49.600;6.138;2022-08-19T23:41:15;1.23;;;1.10;;
37645;SDS011;23489;49.600;6.138;2022-08-19T23:43:43;1.30;;;1.17;;
37645;SDS011;23489;49.600;6.138;2022-08-19T23:46:09;1.45;;;1.25;;
37645;SDS011;23489;49.600;6.138;2022-08-19T23:48:37;1.38;;;1.20;;
37645;SDS011;23489;49.600;6.138;2022-08-19T23:51:04;2.00;;;1.40;;
37645;SDS011;23489;49.600;6.138;2022-08-19T23:53:33;1.27;;;1.15;;
37645;SDS011;23489;49.600;6.138;2022-08-19T23:55:59;1.17;;;1.08;;
37645;SDS011;23489;49.600;6.138;2022-08-19T23:58:25;1.60;;;1.30;;
